Time;durP1;ratioP1;P1;durP2;ratioP2;P2;SDS_P1;SDS_P2;PMS_P1;PMS_P2;Temp;Humidity;BMP_temperature;BMP_pressure;BME280_temperature;BME280_humidity;BME280_pressure;Samples;Min_cycle;Max_cycle;Signal;HPM_P1;HPM_P2
2022/03/25 00:00:27;;;;;;;19.75;4.80;;;;;;;;;;5074094;28;20569;-72
2022/03/25 00:02:55;;;;;;;20.52;4.80;;;;;;;;;;5074113;28;20739;-70
2022/03/25 00:05:22;;;;;;;20.85;5.35;;;;;;;;;;5073435;28;20331;-71
2022/03/25 00:07:50;;;;;;;23.20;5.22;;;;;;;;;;5074238;28;20651;-70
2022/03/25 00:10:17;;;;;;;20.13;5.38;;;;;;;;;;5073787;28;20242;-71
2022/03/25 00:12:45;;;;;;;24.52;5.03;;;;;;;;;;5074036;28;20239;-70
2022/03/25 00:15:14;;;;;;;20.10;5.32;;;;;;;;;;5073549;28;20253;-70
2022/03/25 00:17:41;;;;;;;20.50;4.45;;;;;;;;;;5073740;28;20207;-71
2022/03/25 00:20:09;;;;;;;21.15;5.10;;;;;;;;;;5073562;28;20201;-70
2022/03/25 00:22:37;;;;;;;17.70;4.20;;;;;;;;;;5073635;28;20204;-70
2022/03/25 00:25:05;;;;;;;22.30;5.45;;;;;;;;;;5073324;28;20587;-70
2022/03/25 00:27:33;;;;;;;26.85;5.88;;;;;;;;;;5073595;28;20219;-70
2022/03/25 00:30:01;;;;;;;21.85;4.35;;;;;;;;;;5073445;28;20316;-70
2022/03/25 00:32:29;;;;;;;24.45;5.38;;;;;;;;;;5073366;28;20239;-71
2022/03/25 00:34:57;;;;;;;18.33;4.40;;;;;;;;;;5073689;28;20231;-71
2022/03/25 00:37:25;;;;;;;19.40;5.38;;;;;;;;;;5066723;28;20208;-70
2022/03/25 00:39:53;;;;;;;19.52;4.65;;;;;;;;;;5073459;28;20306;-69
2022/03/25 00:42:21;;;;;;;18.00;4.82;;;;;;;;;;5073245;28;20297;-70
2022/03/25 00:44:48;;;;;;;24.08;5.47;;;;;;;;;;5073477;28;20306;-70
2022/03/25 00:47:16;;;;;;;20.08;4.78;;;;;;;;;;5072932;28;20217;-69
2022/03/25 00:49:45;;;;;;;21.35;4.82;;;;;;;;;;5073310;28;20255;-70
2022/03/25 00:52:13;;;;;;;19.25;4.65;;;;;;;;;;5073302;28;20215;-69
2022/03/25 00:54:40;;;;;;;20.40;4.53;;;;;;;;;;5072993;28;20213;-70
2022/03/25 00:57:08;;;;;;;20.15;5.13;;;;;;;;;;5071378;28;20208;-70
2022/03/25 00:59:35;;;;;;;23.83;6.10;;;;;;;;;;5066031;28;20220;-70
2022/03/25 01:02:03;;;;;;;21.60;4.47;;;;;;;;;;5073246;28;20290;-70
2022/03/25 01:04:31;;;;;;;18.40;4.93;;;;;;;;;;5072917;28;20577;-69
2022/03/25 01:07:00;;;;;;;18.85;4.57;;;;;;;;;;5072856;28;20250;-70
2022/03/25 01:09:27;;;;;;;21.63;5.15;;;;;;;;;;5072921;28;20239;-70
2022/03/25 01:11:55;;;;;;;22.15;5.55;;;;;;;;;;5072813;28;20274;-70
2022/03/25 01:14:23;;;;;;;18.73;3.95;;;;;;;;;;5072634;28;20236;-70
2022/03/25 01:16:50;;;;;;;23.35;5.32;;;;;;;;;;5072614;28;20254;-70
2022/03/25 01:19:19;;;;;;;23.38;5.05;;;;;;;;;;5072658;28;20213;-71
2022/03/25 01:21:47;;;;;;;23.73;6.07;;;;;;;;;;5072587;28;20215;-69
2022/03/25 01:24:16;;;;;;;19.80;5.80;;;;;;;;;;5072568;28;20676;-70
2022/03/25 01:26:44;;;;;;;18.30;5.47;;;;;;;;;;5072376;28;20299;-69
2022/03/25 01:29:12;;;;;;;19.75;5.25;;;;;;;;;;5072050;28;20228;-69
2022/03/25 01:31:40;;;;;;;18.85;5.35;;;;;;;;;;5072508;28;20213;-70
2022/03/25 01:34:08;;;;;;;20.05;4.88;;;;;;;;;;5072456;28;20211;-70
2022/03/25 01:36:35;;;;;;;25.15;4.72;;;;;;;;;;5072364;28;20207;-69
2022/03/25 01:39:03;;;;;;;22.58;5.15;;;;;;;;;;5071964;28;20208;-70
2022/03/25 01:41:32;;;;;;;24.67;5.30;;;;;;;;;;5072515;28;20207;-69
2022/03/25 01:44:01;;;;;;;19.75;4.38;;;;;;;;;;5072703;28;20202;-69
2022/03/25 01:46:29;;;;;;;22.35;5.03;;;;;;;;;;5072233;28;20214;-70
2022/03/25 01:48:57;;;;;;;24.95;5.32;;;;;;;;;;5072227;28;20240;-70
2022/03/25 01:51:26;;;;;;;22.83;5.22;;;;;;;;;;5072068;28;20301;-69
2022/03/25 01:53:54;;;;;;;27.50;4.90;;;;;;;;;;5071796;28;20223;-72
2022/03/25 01:56:23;;;;;;;24.48;4.88;;;;;;;;;;5071874;28;20212;-69
2022/03/25 01:58:52;;;;;;;19.35;4.65;;;;;;;;;;5071942;28;20593;-69
2022/03/25 02:01:19;;;;;;;20.13;4.53;;;;;;;;;;5071633;28;20201;-69
2022/03/25 02:03:47;;;;;;;16.25;4.88;;;;;;;;;;5071871;28;20312;-69
2022/03/25 02:06:14;;;;;;;17.08;4.30;;;;;;;;;;5064934;28;20243;-69
2022/03/25 02:08:42;;;;;;;22.67;5.15;;;;;;;;;;5071207;28;20662;-70
2022/03/25 02:11:11;;;;;;;17.73;4.30;;;;;;;;;;5071322;28;20235;-71
2022/03/25 02:13:39;;;;;;;27.58;5.55;;;;;;;;;;5071732;28;20662;-69
2022/03/25 02:16:07;;;;;;;18.85;4.38;;;;;;;;;;5071504;28;20295;-72
2022/03/25 02:18:35;;;;;;;29.98;5.18;;;;;;;;;;5071439;28;20200;-70
2022/03/25 02:21:02;;;;;;;19.13;5.10;;;;;;;;;;5071063;28;20217;-69
2022/03/25 02:23:31;;;;;;;22.60;4.68;;;;;;;;;;5071450;28;20221;-69
2022/03/25 02:25:59;;;;;;;24.88;5.50;;;;;;;;;;5071524;28;20207;-71
2022/03/25 02:28:26;;;;;;;19.60;4.32;;;;;;;;;;5064466;28;20211;-71
2022/03/25 02:30:54;;;;;;;17.35;4.55;;;;;;;;;;5071226;28;20325;-69
2022/03/25 02:33:22;;;;;;;25.10;5.15;;;;;;;;;;5070800;28;20215;-69
2022/03/25 02:35:50;;;;;;;22.58;4.78;;;;;;;;;;5071064;28;20204;-70
2022/03/25 02:38:18;;;;;;;19.10;5.95;;;;;;;;;;5071154;28;20307;-69
2022/03/25 02:40:47;;;;;;;18.98;4.95;;;;;;;;;;5071142;28;20291;-69
2022/03/25 02:43:15;;;;;;;22.50;4.85;;;;;;;;;;5071034;28;20212;-70
2022/03/25 02:45:43;;;;;;;22.65;5.15;;;;;;;;;;5070987;28;20660;-71
2022/03/25 02:48:12;;;;;;;24.02;6.30;;;;;;;;;;5070874;28;20673;-69
2022/03/25 02:50:39;;;;;;;16.65;4.30;;;;;;;;;;5064321;28;20233;-70
2022/03/25 02:53:07;;;;;;;20.42;5.15;;;;;;;;;;5070801;28;20219;-69
2022/03/25 02:55:34;;;;;;;18.65;4.45;;;;;;;;;;5070765;28;20205;-69
2022/03/25 02:58:04;;;;;;;22.70;4.45;;;;;;;;;;5070976;28;20212;-69
2022/03/25 03:00:31;;;;;;;20.38;4.75;;;;;;;;;;5070636;28;20642;-69
2022/03/25 03:03:00;;;;;;;17.10;3.85;;;;;;;;;;5070738;28;20216;-70
2022/03/25 03:05:28;;;;;;;28.40;5.15;;;;;;;;;;5070761;28;20328;-70
2022/03/25 03:07:56;;;;;;;21.60;4.90;;;;;;;;;;5070542;28;20211;-69
2022/03/25 03:10:24;;;;;;;23.17;5.07;;;;;;;;;;5070760;28;20232;-69
2022/03/25 03:12:52;;;;;;;20.73;4.63;;;;;;;;;;5063814;28;20257;-69
2022/03/25 03:15:21;;;;;;;29.95;4.93;;;;;;;;;;5070224;28;20224;-69
2022/03/25 03:17:50;;;;;;;20.15;4.75;;;;;;;;;;5070382;28;20208;-69
2022/03/25 03:20:18;;;;;;;26.30;4.60;;;;;;;;;;5069855;28;20216;-69
2022/03/25 03:22:46;;;;;;;18.30;4.10;;;;;;;;;;5070637;28;20220;-69
2022/03/25 03:25:13;;;;;;;20.45;4.72;;;;;;;;;;5070330;28;20204;-69
2022/03/25 03:27:41;;;;;;;22.77;5.30;;;;;;;;;;5070377;28;20212;-69
2022/03/25 03:30:09;;;;;;;18.83;4.50;;;;;;;;;;5070317;28;20228;-70
2022/03/25 03:32:38;;;;;;;20.13;3.83;;;;;;;;;;5070453;28;20257;-69
2022/03/25 03:35:07;;;;;;;18.10;4.15;;;;;;;;;;5070176;28;20215;-69
2022/03/25 03:37:40;;;;;;;21.90;4.57;;;;;;;;;;5070487;28;20207;-69
2022/03/25 03:40:09;;;;;;;24.33;5.00;;;;;;;;;;5070303;28;20235;-69
2022/03/25 03:42:37;;;;;;;21.35;5.10;;;;;;;;;;5070208;28;20205;-69
2022/03/25 03:45:05;;;;;;;21.50;4.32;;;;;;;;;;5070028;28;20204;-70
2022/03/25 03:47:32;;;;;;;23.67;5.88;;;;;;;;;;5070399;28;20212;-68
2022/03/25 03:50:01;;;;;;;19.80;5.45;;;;;;;;;;5070292;28;20232;-69
2022/03/25 03:52:28;;;;;;;18.83;4.65;;;;;;;;;;5070139;28;20208;-70
2022/03/25 03:54:56;;;;;;;18.02;4.43;;;;;;;;;;5070784;28;20564;-69
2022/03/25 03:57:24;;;;;;;27.48;5.32;;;;;;;;;;5070219;28;20204;-70
2022/03/25 03:59:51;;;;;;;20.73;4.50;;;;;;;;;;5063418;28;20208;-69
2022/03/25 04:02:18;;;;;;;25.23;5.22;;;;;;;;;;5070149;28;20207;-69
2022/03/25 04:04:46;;;;;;;19.95;4.18;;;;;;;;;;5070353;28;20546;-69
2022/03/25 04:07:15;;;;;;;17.70;4.20;;;;;;;;;;5069904;28;20209;-69
2022/03/25 04:09:42;;;;;;;18.45;4.30;;;;;;;;;;5070155;28;20232;-69
2022/03/25 04:12:11;;;;;;;19.13;4.63;;;;;;;;;;5070259;28;20216;-69
2022/03/25 04:14:39;;;;;;;21.10;4.15;;;;;;;;;;5069960;28;20709;-69
2022/03/25 04:17:08;;;;;;;18.27;4.45;;;;;;;;;;5069759;28;20216;-70
2022/03/25 04:19:35;;;;;;;21.35;4.60;;;;;;;;;;5070341;28;20204;-69
2022/03/25 04:22:02;;;;;;;21.15;5.30;;;;;;;;;;5063404;28;20223;-69
2022/03/25 04:24:31;;;;;;;17.65;4.85;;;;;;;;;;5070076;28;20208;-70
2022/03/25 04:26:59;;;;;;;20.02;5.30;;;;;;;;;;5069899;28;20208;-74
2022/03/25 04:29:26;;;;;;;19.83;4.60;;;;;;;;;;5069966;28;20208;-68
2022/03/25 04:31:54;;;;;;;22.05;5.10;;;;;;;;;;5071465;28;20235;-69
2022/03/25 04:34:21;;;;;;;19.42;5.25;;;;;;;;;;5073549;28;20215;-69
2022/03/25 04:36:49;;;;;;;21.73;4.07;;;;;;;;;;5073742;28;20227;-69
2022/03/25 04:39:16;;;;;;;24.58;5.60;;;;;;;;;;5073483;28;20208;-70
2022/03/25 04:41:45;;;;;;;19.55;5.15;;;;;;;;;;5073735;28;20303;-69
2022/03/25 04:44:12;;;;;;;18.52;4.18;;;;;;;;;;5073272;28;20209;-69
2022/03/25 04:46:41;;;;;;;24.80;4.90;;;;;;;;;;5073211;28;20299;-69
2022/03/25 04:49:08;;;;;;;20.67;5.85;;;;;;;;;;5072938;28;20212;-69
2022/03/25 04:51:36;;;;;;;24.25;5.60;;;;;;;;;;5073238;28;20229;-69
2022/03/25 04:54:03;;;;;;;21.30;6.50;;;;;;;;;;5073038;28;20212;-70
2022/03/25 04:56:33;;;;;;;24.45;7.18;;;;;;;;;;5073137;28;20204;-69
2022/03/25 04:59:03;;;;;;;25.67;6.32;;;;;;;;;;5072811;28;20240;-70
2022/03/25 05:01:31;;;;;;;21.45;6.30;;;;;;;;;;5072939;28;20205;-70
2022/03/25 05:03:58;;;;;;;18.83;5.47;;;;;;;;;;5073038;28;20605;-70
2022/03/25 05:06:26;;;;;;;26.95;6.30;;;;;;;;;;5072879;28;20238;-70
2022/03/25 05:08:53;;;;;;;20.77;5.75;;;;;;;;;;5072778;28;20675;-71
2022/03/25 05:11:21;;;;;;;24.25;7.93;;;;;;;;;;5072503;28;20755;-70
2022/03/25 05:13:48;;;;;;;28.02;7.28;;;;;;;;;;5072728;28;20625;-71
2022/03/25 05:16:17;;;;;;;28.95;6.60;;;;;;;;;;5072860;28;20232;-69
2022/03/25 05:18:45;;;;;;;19.75;5.82;;;;;;;;;;5072961;28;20673;-69
2022/03/25 05:21:13;;;;;;;18.38;5.15;;;;;;;;;;5072528;28;20216;-70
2022/03/25 05:23:40;;;;;;;20.02;5.60;;;;;;;;;;5072627;28;20204;-70
2022/03/25 05:26:08;;;;;;;21.35;5.70;;;;;;;;;;5065689;28;20209;-70
2022/03/25 05:28:36;;;;;;;19.75;4.72;;;;;;;;;;5072447;28;20205;-69
2022/03/25 05:31:04;;;;;;;21.70;5.57;;;;;;;;;;5072465;28;20718;-70
2022/03/25 05:33:33;;;;;;;20.50;5.00;;;;;;;;;;5072603;28;20205;-70
2022/03/25 05:36:00;;;;;;;22.57;6.20;;;;;;;;;;5072441;28;20458;-71
2022/03/25 05:38:27;;;;;;;21.30;5.33;;;;;;;;;;5072291;28;20459;-70
2022/03/25 05:40:55;;;;;;;18.90;5.20;;;;;;;;;;5072087;28;20452;-70
2022/03/25 05:43:23;;;;;;;24.10;5.23;;;;;;;;;;5071172;28;20850;-70
2022/03/25 05:45:50;;;;;;;23.50;6.20;;;;;;;;;;5072406;28;20526;-70
2022/03/25 05:48:17;;;;;;;20.70;5.90;;;;;;;;;;5072051;28;21008;-71
2022/03/25 05:50:47;;;;;;;37.33;6.20;;;;;;;;;;5071989;28;20490;-70
2022/03/25 05:53:14;;;;;;;25.80;6.70;;;;;;;;;;5071895;28;20451;-70
2022/03/25 05:55:41;;;;;;;38.13;7.20;;;;;;;;;;5072235;28;20481;-72
2022/03/25 05:58:09;;;;;;;23.70;6.53;;;;;;;;;;5072020;28;20474;-71
2022/03/25 06:00:37;;;;;;;18.87;5.90;;;;;;;;;;5071961;28;20443;-70
2022/03/25 06:03:05;;;;;;;20.77;6.27;;;;;;;;;;5071707;28;20447;-71
2022/03/25 06:05:33;;;;;;;24.30;5.90;;;;;;;;;;5071731;28;20582;-71
2022/03/25 06:08:02;;;;;;;24.07;6.17;;;;;;;;;;5071654;28;20454;-71
2022/03/25 06:10:29;;;;;;;22.20;7.03;;;;;;;;;;5071554;28;20485;-71
2022/03/25 06:12:56;;;;;;;21.87;6.80;;;;;;;;;;5071750;28;20441;-70
2022/03/25 06:15:24;;;;;;;25.60;6.30;;;;;;;;;;5071386;28;20471;-71
2022/03/25 06:17:52;;;;;;;21.40;6.00;;;;;;;;;;5071418;28;20964;-71
2022/03/25 06:20:20;;;;;;;22.43;7.10;;;;;;;;;;5071404;28;20444;-72
2022/03/25 06:22:48;;;;;;;19.17;5.53;;;;;;;;;;5071746;28;20438;-70
2022/03/25 06:25:18;;;;;;;18.33;5.50;;;;;;;;;;5071687;28;20439;-70
2022/03/25 06:27:46;;;;;;;21.50;6.20;;;;;;;;;;5071716;28;20528;-70
2022/03/25 06:30:15;;;;;;;23.27;7.30;;;;;;;;;;5071371;28;20452;-71
2022/03/25 06:32:42;;;;;;;21.40;6.63;;;;;;;;;;5071241;28;20451;-71
2022/03/25 06:35:10;;;;;;;21.00;5.93;;;;;;;;;;5070873;28;20530;-71
2022/03/25 06:37:38;;;;;;;24.93;6.77;;;;;;;;;;5071424;28;20538;-71
2022/03/25 06:40:07;;;;;;;22.60;6.50;;;;;;;;;;5071187;28;20455;-71
2022/03/25 06:42:37;;;;;;;21.30;6.20;;;;;;;;;;5071116;28;20861;-71
2022/03/25 06:45:04;;;;;;;20.20;6.93;;;;;;;;;;5070719;28;20541;-71
2022/03/25 06:47:32;;;;;;;21.57;7.20;;;;;;;;;;5070853;28;20528;-71
2022/03/25 06:50:00;;;;;;;21.10;6.33;;;;;;;;;;5070944;28;20516;-72
2022/03/25 06:52:28;;;;;;;23.53;6.00;;;;;;;;;;5064140;28;20689;-71
2022/03/25 06:54:55;;;;;;;22.30;7.10;;;;;;;;;;5070894;28;20523;-71
2022/03/25 06:57:23;;;;;;;24.70;9.60;;;;;;;;;;5070623;28;20470;-71
2022/03/25 06:59:52;;;;;;;24.40;7.37;;;;;;;;;;5070641;28;20450;-71
2022/03/25 07:02:20;;;;;;;22.40;6.77;;;;;;;;;;5070705;28;20461;-71
2022/03/25 07:04:48;;;;;;;18.97;5.90;;;;;;;;;;5070819;28;20455;-69
2022/03/25 07:07:15;;;;;;;34.73;5.97;;;;;;;;;;5070568;28;20447;-71
2022/03/25 07:09:43;;;;;;;19.83;6.33;;;;;;;;;;5070791;28;20540;-71
2022/03/25 07:12:12;;;;;;;19.37;6.00;;;;;;;;;;5070507;28;20854;-70
2022/03/25 07:14:39;;;;;;;21.50;7.17;;;;;;;;;;5064021;28;20488;-70
2022/03/25 07:17:08;;;;;;;20.83;6.93;;;;;;;;;;5070488;28;20475;-70
2022/03/25 07:19:35;;;;;;;18.63;6.53;;;;;;;;;;5070495;28;20452;-71
2022/03/25 07:22:03;;;;;;;22.43;7.60;;;;;;;;;;5070417;28;20466;-72
2022/03/25 07:24:31;;;;;;;22.97;5.67;;;;;;;;;;5070283;28;20455;-71
2022/03/25 07:26:59;;;;;;;21.77;6.70;;;;;;;;;;5070382;28;20442;-71
2022/03/25 07:29:26;;;;;;;27.90;8.43;;;;;;;;;;5070594;28;20458;-71
2022/03/25 07:31:53;;;;;;;21.80;6.70;;;;;;;;;;5070472;28;20482;-71
2022/03/25 07:34:22;;;;;;;20.83;6.37;;;;;;;;;;5070343;28;20444;-71
2022/03/25 07:36:50;;;;;;;20.30;7.40;;;;;;;;;;5070408;28;20439;-70
2022/03/25 07:39:18;;;;;;;20.47;6.67;;;;;;;;;;5070146;28;20450;-70
2022/03/25 07:41:46;;;;;;;24.07;7.63;;;;;;;;;;5070094;28;20449;-71
2022/03/25 07:44:14;;;;;;;29.80;9.10;;;;;;;;;;5070496;28;20447;-71
2022/03/25 07:46:41;;;;;;;25.03;7.80;;;;;;;;;;5070145;28;20449;-71
2022/03/25 07:49:09;;;;;;;20.00;7.00;;;;;;;;;;5070189;28;20439;-71
2022/03/25 07:51:38;;;;;;;23.37;7.93;;;;;;;;;;5070059;28;21024;-70
2022/03/25 07:54:07;;;;;;;22.03;6.77;;;;;;;;;;5070155;28;20457;-71
2022/03/25 07:56:34;;;;;;;21.57;6.93;;;;;;;;;;5070196;28;20511;-70
2022/03/25 07:59:03;;;;;;;22.47;7.43;;;;;;;;;;5069996;28;20458;-70
2022/03/25 08:01:30;;;;;;;28.23;7.03;;;;;;;;;;5070027;28;20456;-70
2022/03/25 08:03:58;;;;;;;22.13;6.47;;;;;;;;;;5070212;28;20443;-70
2022/03/25 08:06:25;;;;;;;19.67;6.83;;;;;;;;;;5071070;28;20486;-70
2022/03/25 08:08:54;;;;;;;29.23;7.37;;;;;;;;;;5073889;28;20446;-71
2022/03/25 08:11:21;;;;;;;30.63;7.00;;;;;;;;;;5073834;28;20489;-70
2022/03/25 08:13:49;;;;;;;21.30;7.10;;;;;;;;;;5074103;28;20479;-70
2022/03/25 08:16:17;;;;;;;20.40;6.50;;;;;;;;;;5073787;28;20459;-70
2022/03/25 08:18:45;;;;;;;21.27;6.47;;;;;;;;;;5073886;28;20465;-71
2022/03/25 08:21:12;;;;;;;22.33;6.80;;;;;;;;;;5073428;28;20469;-70
2022/03/25 08:29:13;;;;;;;22.73;8.00;;;;;;;;;;5047264;28;20446;-70
2022/03/25 08:31:41;;;;;;;23.30;7.30;;;;;;;;;;5073454;28;20477;-71
2022/03/25 08:34:13;;;;;;;25.80;8.30;;;;;;;;;;5067301;28;20564;-71
2022/03/25 08:36:40;;;;;;;20.07;6.63;;;;;;;;;;5066717;28;20452;-70
2022/03/25 08:39:08;;;;;;;20.80;6.77;;;;;;;;;;5073375;28;20469;-70
2022/03/25 08:41:38;;;;;;;20.83;6.17;;;;;;;;;;5073445;28;20455;-70
2022/03/25 08:44:06;;;;;;;21.90;6.40;;;;;;;;;;5073311;28;20850;-70
2022/03/25 08:46:34;;;;;;;22.40;5.73;;;;;;;;;;5073197;28;20451;-71
2022/03/25 08:49:03;;;;;;;20.00;6.23;;;;;;;;;;5072932;28;20538;-70
2022/03/25 08:51:30;;;;;;;23.37;6.40;;;;;;;;;;5073251;28;20489;-70
2022/03/25 08:53:58;;;;;;;31.07;6.20;;;;;;;;;;5073230;28;20447;-70
2022/03/25 08:56:27;;;;;;;20.73;6.47;;;;;;;;;;5073236;28;20990;-70
2022/03/25 08:58:58;;;;;;;21.80;6.57;;;;;;;;;;5066356;28;20454;-71
2022/03/25 09:01:25;;;;;;;20.50;6.50;;;;;;;;;;5073024;28;20454;-70
2022/03/25 09:03:53;;;;;;;22.70;6.73;;;;;;;;;;5072958;28;20522;-70
2022/03/25 09:06:20;;;;;;;23.53;6.70;;;;;;;;;;5072707;28;20481;-70
2022/03/25 09:08:48;;;;;;;22.80;6.40;;;;;;;;;;5073004;28;20460;-70
2022/03/25 09:11:15;;;;;;;21.80;6.53;;;;;;;;;;5072441;28;20526;-71
2022/03/25 09:13:43;;;;;;;22.63;6.30;;;;;;;;;;5072994;28;20447;-70
2022/03/25 09:16:13;;;;;;;19.90;6.10;;;;;;;;;;5072763;28;20475;-71
2022/03/25 09:18:40;;;;;;;21.57;6.90;;;;;;;;;;5071795;28;20909;-70
2022/03/25 09:21:08;;;;;;;18.70;5.37;;;;;;;;;;5072590;28;20447;-70
2022/03/25 09:23:35;;;;;;;21.23;6.37;;;;;;;;;;5072647;28;20489;-70
2022/03/25 09:26:03;;;;;;;21.60;6.13;;;;;;;;;;5072581;28;20447;-70
2022/03/25 09:28:30;;;;;;;21.20;7.10;;;;;;;;;;5072723;28;20458;-71
2022/03/25 09:30:58;;;;;;;23.07;7.27;;;;;;;;;;5072603;28;20478;-70
2022/03/25 09:33:27;;;;;;;24.00;6.70;;;;;;;;;;5072520;28;20574;-70
2022/03/25 09:35:55;;;;;;;19.30;6.87;;;;;;;;;;5072360;28;20455;-71
2022/03/25 09:38:22;;;;;;;24.33;6.77;;;;;;;;;;5072234;28;20453;-70
2022/03/25 09:40:50;;;;;;;27.97;6.90;;;;;;;;;;5072741;28;20453;-71
2022/03/25 09:43:20;;;;;;;19.37;5.87;;;;;;;;;;5072171;28;20508;-70
2022/03/25 09:45:47;;;;;;;28.93;6.43;;;;;;;;;;5072173;28;20537;-70
2022/03/25 09:48:15;;;;;;;20.17;6.30;;;;;;;;;;5072161;28;20831;-70
2022/03/25 09:50:44;;;;;;;24.83;7.70;;;;;;;;;;5072129;28;20450;-70
2022/03/25 09:53:11;;;;;;;21.97;6.70;;;;;;;;;;5071585;28;20999;-70
2022/03/25 09:55:41;;;;;;;30.03;7.93;;;;;;;;;;5071981;28;20956;-70
2022/03/25 09:58:08;;;;;;;28.63;7.20;;;;;;;;;;5072282;28;20489;-70
2022/03/25 10:00:36;;;;;;;23.50;6.80;;;;;;;;;;5071845;28;20969;-70
2022/03/25 10:03:04;;;;;;;20.93;7.50;;;;;;;;;;5071722;28;20844;-71
2022/03/25 10:05:31;;;;;;;25.93;8.00;;;;;;;;;;5071605;28;20493;-70
2022/03/25 10:08:00;;;;;;;25.27;8.03;;;;;;;;;;5072061;28;20454;-70
2022/03/25 10:10:29;;;;;;;25.77;8.57;;;;;;;;;;5071724;28;20958;-70
2022/03/25 10:13:00;;;;;;;22.70;6.50;;;;;;;;;;5071549;28;20857;-70
2022/03/25 10:15:29;;;;;;;20.23;6.50;;;;;;;;;;5071678;28;20473;-70
2022/03/25 10:17:57;;;;;;;41.03;7.00;;;;;;;;;;5071667;28;20477;-70
2022/03/25 10:20:25;;;;;;;30.40;6.83;;;;;;;;;;5071503;28;20455;-71
2022/03/25 10:23:11;;;;;;;27.53;7.87;;;;;;;;;;5071710;28;20447;-70
2022/03/25 10:25:40;;;;;;;22.97;7.17;;;;;;;;;;5071626;28;20538;-70
2022/03/25 10:28:20;;;;;;;22.10;7.20;;;;;;;;;;5071477;28;20948;-70
2022/03/25 10:30:50;;;;;;;22.50;7.33;;;;;;;;;;5071238;28;21183;-70
2022/03/25 10:33:22;;;;;;;28.37;7.53;;;;;;;;;;5071214;28;20564;-70
2022/03/25 10:36:00;;;;;;;29.87;9.77;;;;;;;;;;5071328;28;20439;-71
2022/03/25 10:38:41;;;;;;;23.73;6.43;;;;;;;;;;5071224;28;20494;-70
2022/03/25 10:41:08;;;;;;;23.17;6.53;;;;;;;;;;5071106;28;20459;-70
2022/03/25 10:43:36;;;;;;;22.83;7.07;;;;;;;;;;5071245;28;20461;-70
2022/03/25 10:46:04;;;;;;;22.63;7.67;;;;;;;;;;5070939;28;20454;-70
2022/03/25 10:48:31;;;;;;;22.83;6.80;;;;;;;;;;5070986;28;20474;-70
2022/03/25 10:51:04;;;;;;;25.17;7.53;;;;;;;;;;5070764;28;20828;-72
2022/03/25 10:53:33;;;;;;;22.97;7.63;;;;;;;;;;5070672;28;20483;-71
2022/03/25 10:56:03;;;;;;;26.33;8.20;;;;;;;;;;5070866;28;20455;-70
2022/03/25 10:58:30;;;;;;;23.40;7.20;;;;;;;;;;5071128;28;20455;-70
2022/03/25 11:00:59;;;;;;;23.47;8.17;;;;;;;;;;5061901;28;20440;-70
2022/03/25 11:03:27;;;;;;;25.30;7.63;;;;;;;;;;5069397;28;20454;-70
2022/03/25 11:05:55;;;;;;;21.77;7.37;;;;;;;;;;5070731;28;20483;-70
2022/03/25 11:08:22;;;;;;;25.00;7.80;;;;;;;;;;5070996;28;20542;-73
2022/03/25 11:10:52;;;;;;;27.37;7.80;;;;;;;;;;5070532;28;20974;-73
2022/03/25 11:13:20;;;;;;;29.33;9.27;;;;;;;;;;5070523;28;20505;-73
2022/03/25 11:15:48;;;;;;;23.33;8.30;;;;;;;;;;5070607;28;20486;-72
2022/03/25 11:18:15;;;;;;;25.60;9.60;;;;;;;;;;5070590;28;20451;-72
2022/03/25 11:20:43;;;;;;;25.07;10.00;;;;;;;;;;5064063;28;20447;-72
2022/03/25 11:23:13;;;;;;;35.03;8.83;;;;;;;;;;5070495;28;20515;-72
2022/03/25 11:25:41;;;;;;;29.40;10.43;;;;;;;;;;5070357;28;20453;-73
2022/03/25 11:28:13;;;;;;;24.63;9.80;;;;;;;;;;5070517;28;20481;-72
2022/03/25 11:30:41;;;;;;;31.17;9.57;;;;;;;;;;5070330;28;20833;-69
2022/03/25 11:33:10;;;;;;;27.30;9.33;;;;;;;;;;5070098;28;21101;-69
2022/03/25 11:35:38;;;;;;;28.23;7.97;;;;;;;;;;5070454;28;20439;-73
2022/03/25 11:38:19;;;;;;;26.57;7.87;;;;;;;;;;5070590;28;20447;-73
2022/03/25 11:40:48;;;;;;;21.03;6.40;;;;;;;;;;5069870;28;20449;-72
2022/03/25 11:43:17;;;;;;;23.93;7.53;;;;;;;;;;5070073;28;20450;-70
2022/03/25 11:45:45;;;;;;;29.20;6.77;;;;;;;;;;5070166;28;20541;-68
2022/03/25 11:48:31;;;;;;;21.50;8.03;;;;;;;;;;5070323;28;20454;-69
2022/03/25 11:51:01;;;;;;;22.00;6.77;;;;;;;;;;5070431;28;20462;-70
2022/03/25 11:53:33;;;;;;;25.70;7.33;;;;;;;;;;5070279;28;20487;-70
2022/03/25 11:56:01;;;;;;;29.57;7.13;;;;;;;;;;5070127;28;20449;-70
2022/03/25 11:58:31;;;;;;;25.57;7.57;;;;;;;;;;5070021;28;20520;-70
2022/03/25 12:01:03;;;;;;;27.30;7.97;;;;;;;;;;5070480;28;20534;-70
2022/03/25 12:03:43;;;;;;;25.30;7.83;;;;;;;;;;5064318;28;20454;-71
2022/03/25 12:06:11;;;;;;;22.60;7.77;;;;;;;;;;5064815;28;20574;-71
2022/03/25 12:08:39;;;;;;;21.70;6.23;;;;;;;;;;5070567;28;20449;-71
2022/03/25 12:11:08;;;;;;;26.60;7.40;;;;;;;;;;5062918;28;21017;-71
2022/03/25 12:13:54;;;;;;;22.00;6.40;;;;;;;;;;5070034;28;20487;-71
2022/03/25 12:16:41;;;;;;;29.10;7.63;;;;;;;;;;5064016;28;20540;-71
2022/03/25 12:19:30;;;;;;;22.47;7.67;;;;;;;;;;5065781;28;20459;-71
2022/03/25 12:21:57;;;;;;;28.07;7.20;;;;;;;;;;5069779;28;20458;-71
2022/03/25 12:24:25;;;;;;;23.90;6.80;;;;;;;;;;5069924;28;20450;-70
2022/03/25 12:26:56;;;;;;;19.57;5.80;;;;;;;;;;5069329;28;20534;-70
2022/03/25 12:29:29;;;;;;;22.87;6.37;;;;;;;;;;5069580;28;20458;-69
2022/03/25 12:31:57;;;;;;;23.27;6.77;;;;;;;;;;5068668;28;20450;-70
2022/03/25 12:34:31;;;;;;;21.97;7.23;;;;;;;;;;5068178;28;20518;-70
2022/03/25 12:37:00;;;;;;;21.53;7.40;;;;;;;;;;5068999;28;20500;-73
2022/03/25 12:39:29;;;;;;;20.50;6.67;;;;;;;;;;5068996;28;20443;-69
2022/03/25 12:41:56;;;;;;;21.40;6.20;;;;;;;;;;5068578;28;20911;-70
2022/03/25 12:44:27;;;;;;;21.97;6.17;;;;;;;;;;5067791;28;20461;-70
2022/03/25 12:46:58;;;;;;;16.50;4.73;;;;;;;;;;5067810;28;20500;-70
2022/03/25 12:49:26;;;;;;;19.90;5.30;;;;;;;;;;5067730;28;20451;-69
2022/03/25 12:51:57;;;;;;;23.53;6.03;;;;;;;;;;5067996;28;20451;-70
2022/03/25 12:54:25;;;;;;;22.93;5.90;;;;;;;;;;5070912;28;20482;-69
2022/03/25 12:56:56;;;;;;;23.20;6.03;;;;;;;;;;5071394;28;20955;-70
2022/03/25 12:59:30;;;;;;;18.30;5.27;;;;;;;;;;5071761;28;20995;-70
2022/03/25 13:01:58;;;;;;;18.17;5.13;;;;;;;;;;5072964;28;20451;-69
2022/03/25 13:04:29;;;;;;;22.00;5.87;;;;;;;;;;5073246;28;20489;-69
2022/03/25 13:06:59;;;;;;;23.87;5.20;;;;;;;;;;5073343;28;20481;-69
2022/03/25 13:09:27;;;;;;;24.17;5.70;;;;;;;;;;5073141;28;20828;-69
2022/03/25 13:11:56;;;;;;;20.20;5.87;;;;;;;;;;5072933;28;20447;-71
2022/03/25 13:14:24;;;;;;;20.97;5.87;;;;;;;;;;5072801;28;20584;-69
2022/03/25 13:16:52;;;;;;;22.40;6.83;;;;;;;;;;5072786;28;20446;-69
2022/03/25 13:19:30;;;;;;;24.93;6.70;;;;;;;;;;5072430;28;21341;-69
2022/03/25 13:21:57;;;;;;;21.33;5.80;;;;;;;;;;5072740;28;20450;-69
2022/03/25 13:24:26;;;;;;;21.53;6.37;;;;;;;;;;5072710;28;20517;-69
2022/03/25 13:26:54;;;;;;;21.30;6.60;;;;;;;;;;5072646;28;20454;-70
2022/03/25 13:29:21;;;;;;;28.03;5.70;;;;;;;;;;5072405;28;20458;-69
2022/03/25 13:31:54;;;;;;;20.50;5.83;;;;;;;;;;5072387;28;20478;-70
2022/03/25 13:34:21;;;;;;;19.30;6.20;;;;;;;;;;5072581;28;20516;-69
2022/03/25 13:36:54;;;;;;;26.67;5.80;;;;;;;;;;5072443;28;20848;-70
2022/03/25 13:39:21;;;;;;;19.53;5.67;;;;;;;;;;5072421;28;20446;-69
2022/03/25 13:41:50;;;;;;;18.00;5.20;;;;;;;;;;5072357;28;20447;-71
2022/03/25 13:44:17;;;;;;;19.97;5.37;;;;;;;;;;5072258;28;20952;-69
2022/03/25 13:46:46;;;;;;;19.97;5.80;;;;;;;;;;5072324;28;20841;-70
2022/03/25 13:49:14;;;;;;;17.63;5.17;;;;;;;;;;5071726;28;20849;-69
2022/03/25 13:51:42;;;;;;;18.63;5.50;;;;;;;;;;5072338;28;20447;-69
2022/03/25 13:54:11;;;;;;;20.73;5.70;;;;;;;;;;5072146;28;20482;-70
2022/03/25 13:56:39;;;;;;;21.93;5.50;;;;;;;;;;5072044;28;20832;-69
2022/03/25 13:59:09;;;;;;;18.50;4.80;;;;;;;;;;5072033;28;20443;-69
2022/03/25 14:01:38;;;;;;;28.70;7.53;;;;;;;;;;5072164;28;20450;-68
2022/03/25 14:04:10;;;;;;;29.33;7.37;;;;;;;;;;5071146;28;20455;-69
2022/03/25 14:06:39;;;;;;;22.93;6.37;;;;;;;;;;5071715;28;20488;-68
2022/03/25 14:09:07;;;;;;;22.90;10.17;;;;;;;;;;5071508;28;20479;-69
2022/03/25 14:11:34;;;;;;;30.33;9.57;;;;;;;;;;5065348;28;20451;-68
2022/03/25 14:14:02;;;;;;;22.52;6.78;;;;;;;;;;5071822;28;20224;-69
2022/03/25 14:16:34;;;;;;;43.72;8.75;;;;;;;;;;5073312;28;20277;-69
2022/03/25 14:19:02;;;;;;;24.27;8.00;;;;;;;;;;5073368;28;20640;-68
2022/03/25 14:21:31;;;;;;;27.10;7.05;;;;;;;;;;5073294;28;20276;-69
2022/03/25 14:26:44;;;;;;;22.33;6.53;;;;;;;;;;5073745;28;20551;-69
2022/03/25 14:29:12;;;;;;;21.40;7.13;;;;;;;;;;5072738;28;20693;-69
2022/03/25 14:31:42;;;;;;;32.08;9.90;;;;;;;;;;5073029;28;20552;-70
2022/03/25 14:34:10;;;;;;;29.23;7.05;;;;;;;;;;5072752;28;20217;-70
2022/03/25 14:36:37;;;;;;;30.10;9.20;;;;;;;;;;5072944;28;20208;-68
2022/03/25 14:39:05;;;;;;;27.65;10.13;;;;;;;;;;5072605;28;20649;-69
2022/03/25 14:41:33;;;;;;;28.45;8.40;;;;;;;;;;5072818;28;20261;-68
2022/03/25 14:44:02;;;;;;;24.73;8.23;;;;;;;;;;5072926;28;20611;-70
2022/03/25 14:46:29;;;;;;;28.48;7.50;;;;;;;;;;5073648;28;20223;-70